sensor_id;sensor_type;location;lat;lon;timestamp;pressure;altitude;pressure_sealevel;temperature;humidity
62438;BME280;48481;0.000;0.000;2023-05-12T00:00:28;101405.22;;;14.70;61.06
62438;BME280;48481;0.000;0.000;2023-05-12T00:02:53;101398.25;;;14.69;60.98
62438;BME280;48481;0.000;0.000;2023-05-12T00:05:19;101396.88;;;14.73;60.07
62438;BME280;48481;0.000;0.000;2023-05-12T00:07:44;101398.00;;;14.79;60.31
62438;BME280;48481;0.000;0.000;2023-05-12T00:10:10;101401.91;;;14.68;60.07
62438;BME280;48481;0.000;0.000;2023-05-12T00:12:35;101391.53;;;14.73;60.37
62438;BME280;48481;0.000;0.000;2023-05-12T00:15:01;101405.22;;;14.70;59.87
62438;BME280;48481;0.000;0.000;2023-05-12T00:17:26;101390.84;;;14.79;59.31
62438;BME280;48481;0.000;0.000;2023-05-12T00:19:52;101394.22;;;14.73;59.39
62438;BME280;48481;0.000;0.000;2023-05-12T00:22:17;101390.19;;;14.77;59.12
62438;BME280;48481;0.000;0.000;2023-05-12T00:24:42;101398.19;;;14.77;58.84
62438;BME280;48481;0.000;0.000;2023-05-12T00:27:08;101399.75;;;14.86;58.11
62438;BME280;48481;0.000;0.000;2023-05-12T00:29:33;101408.53;;;14.95;57.58
62438;BME280;48481;0.000;0.000;2023-05-12T00:31:59;101403.38;;;14.94;57.51
62438;BME280;48481;0.000;0.000;2023-05-12T00:34:26;101405.09;;;14.86;57.00
62438;BME280;48481;0.000;0.000;2023-05-12T00:36:51;101410.13;;;14.81;56.81
62438;BME280;48481;0.000;0.000;2023-05-12T00:39:17;101407.03;;;14.93;56.67
62438;BME280;48481;0.000;0.000;2023-05-12T00:41:42;101400.31;;;14.82;56.87
62438;BME280;48481;0.000;0.000;2023-05-12T00:44:08;101403.34;;;15.02;56.26
62438;BME280;48481;0.000;0.000;2023-05-12T00:46:33;101409.06;;;14.90;56.07
62438;BME280;48481;0.000;0.000;2023-05-12T00:48:59;101409.41;;;14.87;56.56
62438;BME280;48481;0.000;0.000;2023-05-12T00:51:25;101412.69;;;14.98;56.13
62438;BME280;48481;0.000;0.000;2023-05-12T00:53:50;101415.19;;;14.99;56.30
62438;BME280;48481;0.000;0.000;2023-05-12T00:56:17;101407.59;;;14.88;57.15
62438;BME280;48481;0.000;0.000;2023-05-12T00:58:43;101416.00;;;15.00;55.76
62438;BME280;48481;0.000;0.000;2023-05-12T01:01:08;101409.72;;;14.93;55.82
62438;BME280;48481;0.000;0.000;2023-05-12T01:03:34;101414.94;;;14.86;55.63
62438;BME280;48481;0.000;0.000;2023-05-12T01:06:07;101419.34;;;14.94;55.91
62438;BME280;48481;0.000;0.000;2023-05-12T01:08:34;101419.31;;;15.02;55.60
62438;BME280;48481;0.000;0.000;2023-05-12T01:11:00;101413.69;;;14.97;55.95
62438;BME280;48481;0.000;0.000;2023-05-12T01:13:26;101419.91;;;14.89;56.24
62438;BME280;48481;0.000;0.000;2023-05-12T01:15:54;101409.41;;;14.87;56.87
62438;BME280;48481;0.000;0.000;2023-05-12T01:18:22;101417.06;;;14.90;56.07
62438;BME280;48481;0.000;0.000;2023-05-12T01:20:48;101424.69;;;14.94;56.17
62438;BME280;48481;0.000;0.000;2023-05-12T01:23:18;101424.09;;;14.83;56.21
62438;BME280;48481;0.000;0.000;2023-05-12T01:25:45;101426.94;;;14.82;56.63
62438;BME280;48481;0.000;0.000;2023-05-12T01:28:11;101428.31;;;14.78;56.66
62438;BME280;48481;0.000;0.000;2023-05-12T01:30:38;101431.16;;;14.76;56.44
62438;BME280;48481;0.000;0.000;2023-05-12T01:33:09;101431.94;;;14.85;56.41
62438;BME280;48481;0.000;0.000;2023-05-12T01:35:35;101429.16;;;14.78;56.88
62438;BME280;48481;0.000;0.000;2023-05-12T01:38:00;101426.94;;;14.82;56.57
62438;BME280;48481;0.000;0.000;2023-05-12T01:40:26;101426.31;;;14.80;56.30
62438;BME280;48481;0.000;0.000;2023-05-12T01:42:51;101432.03;;;14.91;56.00
62438;BME280;48481;0.000;0.000;2023-05-12T01:45:17;101430.91;;;14.86;56.18
62438;BME280;48481;0.000;0.000;2023-05-12T01:47:42;101431.69;;;14.95;56.23
62438;BME280;48481;0.000;0.000;2023-05-12T01:50:08;101441.69;;;14.93;55.79
62438;BME280;48481;0.000;0.000;2023-05-12T01:52:34;101435.78;;;14.82;56.08
62438;BME280;48481;0.000;0.000;2023-05-12T01:54:59;101435.31;;;14.79;56.45
62438;BME280;48481;0.000;0.000;2023-05-12T01:57:25;101439.81;;;14.78;56.70
62438;BME280;48481;0.000;0.000;2023-05-12T01:59:50;101438.63;;;14.81;56.64
62438;BME280;48481;0.000;0.000;2023-05-12T02:02:15;101441.94;;;14.83;56.42
62438;BME280;48481;0.000;0.000;2023-05-12T02:04:41;101446.78;;;14.79;56.71
62438;BME280;48481;0.000;0.000;2023-05-12T02:07:07;101451.94;;;14.81;56.57
62438;BME280;48481;0.000;0.000;2023-05-12T02:09:32;101442.00;;;14.75;56.57
62438;BME280;48481;0.000;0.000;2023-05-12T02:11:58;101445.13;;;14.78;56.89
62438;BME280;48481;0.000;0.000;2023-05-12T02:14:23;101445.13;;;14.78;56.90
62438;BME280;48481;0.000;0.000;2023-05-12T02:16:48;101446.44;;;14.82;56.66
62438;BME280;48481;0.000;0.000;2023-05-12T02:19:18;101451.75;;;14.82;56.33
62438;BME280;48481;0.000;0.000;2023-05-12T02:21:44;101450.47;;;14.78;56.67
62438;BME280;48481;0.000;0.000;2023-05-12T02:24:10;101463.72;;;14.86;56.50
62438;BME280;48481;0.000;0.000;2023-05-12T02:26:36;101458.75;;;14.83;56.27
62438;BME280;48481;0.000;0.000;2023-05-12T02:29:01;101457.63;;;14.78;56.64
62438;BME280;48481;0.000;0.000;2023-05-12T02:31:26;101466.44;;;14.78;56.73
62438;BME280;48481;0.000;0.000;2023-05-12T02:33:52;101462.78;;;14.79;56.32
62438;BME280;48481;0.000;0.000;2023-05-12T02:36:18;101459.09;;;14.80;56.40
62438;BME280;48481;0.000;0.000;2023-05-12T02:38:43;101458.28;;;14.80;56.70
62438;BME280;48481;0.000;0.000;2023-05-12T02:41:09;101461.19;;;14.93;55.78
62438;BME280;48481;0.000;0.000;2023-05-12T02:43:34;101461.41;;;14.83;56.51
62438;BME280;48481;0.000;0.000;2023-05-12T02:45:59;101459.41;;;14.85;56.75
62438;BME280;48481;0.000;0.000;2023-05-12T02:48:25;101463.38;;;14.89;56.56
62438;BME280;48481;0.000;0.000;2023-05-12T02:50:50;101458.41;;;14.86;56.34
62438;BME280;48481;0.000;0.000;2023-05-12T02:53:16;101455.38;;;14.89;56.09
62438;BME280;48481;0.000;0.000;2023-05-12T02:55:41;101453.94;;;14.79;56.63
62438;BME280;48481;0.000;0.000;2023-05-12T02:58:06;101457.03;;;14.90;56.47
62438;BME280;48481;0.000;0.000;2023-05-12T03:00:32;101460.41;;;14.84;56.79
62438;BME280;48481;0.000;0.000;2023-05-12T03:02:57;101458.75;;;14.83;56.80
62438;BME280;48481;0.000;0.000;2023-05-12T03:05:23;101458.41;;;14.86;56.32
62438;BME280;48481;0.000;0.000;2023-05-12T03:07:48;101464.72;;;14.85;56.11
62438;BME280;48481;0.000;0.000;2023-05-12T03:10:15;101457.94;;;14.83;56.42
62438;BME280;48481;0.000;0.000;2023-05-12T03:12:41;101466.34;;;14.95;55.98
62438;BME280;48481;0.000;0.000;2023-05-12T03:15:07;101457.75;;;14.84;55.91
62438;BME280;48481;0.000;0.000;2023-05-12T03:20:10;101466.84;;;14.98;55.86
62438;BME280;48481;0.000;0.000;2023-05-12T03:22:36;101464.69;;;14.94;55.71
62438;BME280;48481;0.000;0.000;2023-05-12T03:25:02;101473.56;;;15.09;55.77
62438;BME280;48481;0.000;0.000;2023-05-12T03:27:30;101473.09;;;15.05;55.59
62438;BME280;48481;0.000;0.000;2023-05-12T03:29:56;101473.47;;;15.02;55.87
62438;BME280;48481;0.000;0.000;2023-05-12T03:32:22;101470.16;;;15.00;55.85
62438;BME280;48481;0.000;0.000;2023-05-12T03:34:47;101473.03;;;14.90;56.08
62438;BME280;48481;0.000;0.000;2023-05-12T03:37:12;101476.31;;;15.01;55.73
62438;BME280;48481;0.000;0.000;2023-05-12T03:39:38;101470.72;;;14.87;55.99
62438;BME280;48481;0.000;0.000;2023-05-12T03:42:03;101475.69;;;14.90;55.71
62438;BME280;48481;0.000;0.000;2023-05-12T03:44:29;101477.06;;;14.86;56.07
62438;BME280;48481;0.000;0.000;2023-05-12T03:46:54;101476.88;;;14.88;56.18
62438;BME280;48481;0.000;0.000;2023-05-12T03:49:20;101472.03;;;14.91;58.74
62438;BME280;48481;0.000;0.000;2023-05-12T03:51:45;101478.00;;;14.94;56.40
62438;BME280;48481;0.000;0.000;2023-05-12T03:54:11;101480.66;;;14.94;57.86
62438;BME280;48481;0.000;0.000;2023-05-12T03:56:36;101485.25;;;15.08;58.34
62438;BME280;48481;0.000;0.000;2023-05-12T03:59:02;101485.72;;;15.11;56.88
62438;BME280;48481;0.000;0.000;2023-05-12T04:01:28;101476.53;;;15.14;56.23
62438;BME280;48481;0.000;0.000;2023-05-12T04:03:53;101484.25;;;15.09;56.53
62438;BME280;48481;0.000;0.000;2023-05-12T04:06:18;101476.53;;;15.14;57.69
62438;BME280;48481;0.000;0.000;2023-05-12T04:08:44;101488.50;;;15.18;58.46
62438;BME280;48481;0.000;0.000;2023-05-12T04:11:09;101479.13;;;15.22;55.57
62438;BME280;48481;0.000;0.000;2023-05-12T04:13:35;101482.13;;;15.04;55.73
62438;BME280;48481;0.000;0.000;2023-05-12T04:16:00;101493.25;;;15.08;56.37
62438;BME280;48481;0.000;0.000;2023-05-12T04:18:26;101492.25;;;15.09;56.72
62438;BME280;48481;0.000;0.000;2023-05-12T04:20:55;101493.97;;;15.02;56.34
62438;BME280;48481;0.000;0.000;2023-05-12T04:23:21;101505.56;;;15.09;58.16
62438;BME280;48481;0.000;0.000;2023-05-12T04:25:46;101503.72;;;15.09;56.09
62438;BME280;48481;0.000;0.000;2023-05-12T04:28:12;101505.88;;;15.14;56.89
62438;BME280;48481;0.000;0.000;2023-05-12T04:30:39;101504.97;;;15.21;56.67
62438;BME280;48481;0.000;0.000;2023-05-12T04:33:06;101509.69;;;15.34;56.34
62438;BME280;48481;0.000;0.000;2023-05-12T04:35:31;101511.72;;;15.32;55.90
62438;BME280;48481;0.000;0.000;2023-05-12T04:37:57;101516.50;;;15.37;56.82
62438;BME280;48481;0.000;0.000;2023-05-12T04:40:22;101513.94;;;15.43;55.92
62438;BME280;48481;0.000;0.000;2023-05-12T04:42:49;101521.66;;;15.38;56.07
62438;BME280;48481;0.000;0.000;2023-05-12T04:45:14;101510.56;;;15.49;55.57
62438;BME280;48481;0.000;0.000;2023-05-12T04:47:40;101514.59;;;15.45;55.30
62438;BME280;48481;0.000;0.000;2023-05-12T04:50:06;101519.75;;;15.47;54.71
62438;BME280;48481;0.000;0.000;2023-05-12T04:52:31;101525.16;;;15.39;54.68
62438;BME280;48481;0.000;0.000;2023-05-12T04:54:57;101518.63;;;15.41;54.48
62438;BME280;48481;0.000;0.000;2023-05-12T04:57:22;101529.78;;;15.45;54.22
62438;BME280;48481;0.000;0.000;2023-05-12T04:59:48;101538.53;;;15.53;54.24
62438;BME280;48481;0.000;0.000;2023-05-12T05:02:13;101538.91;;;15.50;54.15
62438;BME280;48481;0.000;0.000;2023-05-12T05:04:39;101542.94;;;15.46;54.42
62438;BME280;48481;0.000;0.000;2023-05-12T05:07:04;101543.00;;;15.38;54.80
62438;BME280;48481;0.000;0.000;2023-05-12T05:09:30;101544.72;;;15.31;54.58
62438;BME280;48481;0.000;0.000;2023-05-12T05:11:55;101541.63;;;15.42;54.87
62438;BME280;48481;0.000;0.000;2023-05-12T05:14:21;101546.22;;;15.34;54.76
62438;BME280;48481;0.000;0.000;2023-05-12T05:16:46;101547.97;;;15.41;55.31
62438;BME280;48481;0.000;0.000;2023-05-12T05:19:12;101545.97;;;15.43;54.83
62438;BME280;48481;0.000;0.000;2023-05-12T05:21:38;101557.72;;;15.34;54.83
62438;BME280;48481;0.000;0.000;2023-05-12T05:24:04;101553.84;;;15.37;55.22
62438;BME280;48481;0.000;0.000;2023-05-12T05:26:29;101553.59;;;15.46;55.96
62438;BME280;48481;0.000;0.000;2023-05-12T05:28:55;101559.53;;;15.57;54.44
62438;BME280;48481;0.000;0.000;2023-05-12T05:31:20;101561.16;;;15.66;55.25
62438;BME280;48481;0.000;0.000;2023-05-12T05:33:47;101562.81;;;15.67;54.61
62438;BME280;48481;0.000;0.000;2023-05-12T05:36:12;101570.66;;;15.68;55.01
62438;BME280;48481;0.000;0.000;2023-05-12T05:38:38;101572.72;;;15.81;55.13
62438;BME280;48481;0.000;0.000;2023-05-12T05:41:04;101571.63;;;15.90;53.84
62438;BME280;48481;0.000;0.000;2023-05-12T05:43:29;101581.78;;;15.72;54.33
62438;BME280;48481;0.000;0.000;2023-05-12T05:45:55;101570.97;;;15.88;53.68
62438;BME280;48481;0.000;0.000;2023-05-12T05:48:25;101576.38;;;15.80;53.59
62438;BME280;48481;0.000;0.000;2023-05-12T05:50:52;101577.88;;;15.97;53.26
62438;BME280;48481;0.000;0.000;2023-05-12T05:53:19;101579.63;;;15.90;54.12
62438;BME280;48481;0.000;0.000;2023-05-12T05:55:45;101584.16;;;16.04;54.94
62438;BME280;48481;0.000;0.000;2023-05-12T05:58:11;101588.84;;;16.02;53.56
62438;BME280;48481;0.000;0.000;2023-05-12T06:00:37;101584.72;;;16.14;54.52
62438;BME280;48481;0.000;0.000;2023-05-12T06:03:02;101592.06;;;16.12;52.26
62438;BME280;48481;0.000;0.000;2023-05-12T06:05:28;101599.00;;;16.22;53.92
62438;BME280;48481;0.000;0.000;2023-05-12T06:07:54;101603.03;;;16.17;52.94
62438;BME280;48481;0.000;0.000;2023-05-12T06:10:19;101599.63;;;16.24;51.76
62438;BME280;48481;0.000;0.000;2023-05-12T06:12:45;101604.78;;;16.25;51.54
62438;BME280;48481;0.000;0.000;2023-05-12T06:15:10;101605.38;;;16.35;53.10
62438;BME280;48481;0.000;0.000;2023-05-12T06:17:36;101601.22;;;16.62;51.86
62438;BME280;48481;0.000;0.000;2023-05-12T06:20:02;101597.47;;;16.42;52.69
62438;BME280;48481;0.000;0.000;2023-05-12T06:22:29;101609.97;;;16.56;53.45
62438;BME280;48481;0.000;0.000;2023-05-12T06:24:55;101596.72;;;16.77;52.18
62438;BME280;48481;0.000;0.000;2023-05-12T06:27:20;101598.63;;;16.84;51.39
62438;BME280;48481;0.000;0.000;2023-05-12T06:29:46;101606.00;;;16.82;50.74
62438;BME280;48481;0.000;0.000;2023-05-12T06:32:11;101600.28;;;16.85;50.12
62438;BME280;48481;0.000;0.000;2023-05-12T06:34:36;101606.91;;;16.89;50.20
62438;BME280;48481;0.000;0.000;2023-05-12T06:37:02;101608.22;;;16.93;49.72
62438;BME280;48481;0.000;0.000;2023-05-12T06:39:27;101610.91;;;16.78;49.93
62438;BME280;48481;0.000;0.000;2023-05-12T06:41:52;101612.75;;;16.92;50.75
62438;BME280;48481;0.000;0.000;2023-05-12T06:44:18;101619.66;;;16.87;49.73
62438;BME280;48481;0.000;0.000;2023-05-12T06:46:43;101620.47;;;17.02;50.75
62438;BME280;48481;0.000;0.000;2023-05-12T06:49:09;101619.72;;;17.08;49.33
62438;BME280;48481;0.000;0.000;2023-05-12T06:51:34;101621.03;;;16.97;49.71
62438;BME280;48481;0.000;0.000;2023-05-12T06:54:00;101616.34;;;16.85;49.61
62438;BME280;48481;0.000;0.000;2023-05-12T06:56:26;101625.09;;;16.64;50.33
62438;BME280;48481;0.000;0.000;2023-05-12T06:58:53;101619.28;;;16.75;51.17
62438;BME280;48481;0.000;0.000;2023-05-12T07:01:25;101624.94;;;16.65;50.33
62438;BME280;48481;0.000;0.000;2023-05-12T07:03:50;101624.28;;;16.93;50.42
62438;BME280;48481;0.000;0.000;2023-05-12T07:06:16;101629.78;;;16.62;50.16
62438;BME280;48481;0.000;0.000;2023-05-12T07:08:41;101625.94;;;16.94;49.37
62438;BME280;48481;0.000;0.000;2023-05-12T07:11:06;101617.88;;;17.08;49.38
62438;BME280;48481;0.000;0.000;2023-05-12T07:13:32;101628.94;;;17.05;50.39
62438;BME280;48481;0.000;0.000;2023-05-12T07:15:57;101627.56;;;17.09;49.17
62438;BME280;48481;0.000;0.000;2023-05-12T07:18:23;101640.75;;;17.11;48.73
62438;BME280;48481;0.000;0.000;2023-05-12T07:20:49;101636.69;;;17.15;49.81
62438;BME280;48481;0.000;0.000;2023-05-12T07:23:14;101634.59;;;17.32;48.70
62438;BME280;48481;0.000;0.000;2023-05-12T07:25:40;101642.22;;;17.14;48.42
62438;BME280;48481;0.000;0.000;2023-05-12T07:28:05;101642.50;;;17.40;47.93
62438;BME280;48481;0.000;0.000;2023-05-12T07:30:31;101644.53;;;17.38;48.69
62438;BME280;48481;0.000;0.000;2023-05-12T07:32:56;101640.28;;;17.65;47.36
62438;BME280;48481;0.000;0.000;2023-05-12T07:35:22;101638.94;;;17.54;47.93
62438;BME280;48481;0.000;0.000;2023-05-12T07:37:47;101635.97;;;18.13;45.97
62438;BME280;48481;0.000;0.000;2023-05-12T07:40:13;101638.72;;;17.92;47.78
62438;BME280;48481;0.000;0.000;2023-05-12T07:42:38;101648.41;;;17.93;47.11
62438;BME280;48481;0.000;0.000;2023-05-12T07:45:04;101641.16;;;18.15;46.38
62438;BME280;48481;0.000;0.000;2023-05-12T07:47:29;101642.34;;;17.63;48.55
62438;BME280;48481;0.000;0.000;2023-05-12T07:49:55;101647.44;;;18.00;48.41
62438;BME280;48481;0.000;0.000;2023-05-12T07:52:20;101640.22;;;18.01;47.01
62438;BME280;48481;0.000;0.000;2023-05-12T07:54:46;101652.06;;;18.13;47.49
62438;BME280;48481;0.000;0.000;2023-05-12T07:57:11;101648.03;;;18.24;47.47
62438;BME280;48481;0.000;0.000;2023-05-12T07:59:36;101655.69;;;18.27;46.64
62438;BME280;48481;0.000;0.000;2023-05-12T08:02:02;101648.28;;;18.29;46.75
62438;BME280;48481;0.000;0.000;2023-05-12T08:04:27;101647.44;;;18.28;46.41
62438;BME280;48481;0.000;0.000;2023-05-12T08:06:53;101648.88;;;18.59;45.32
62438;BME280;48481;0.000;0.000;2023-05-12T08:09:19;101650.25;;;18.48;46.73
62438;BME280;48481;0.000;0.000;2023-05-12T08:11:44;101657.75;;;18.25;45.57
62438;BME280;48481;0.000;0.000;2023-05-12T08:14:09;101659.41;;;18.04;46.70
62438;BME280;48481;0.000;0.000;2023-05-12T08:16:35;101664.16;;;17.81;46.71
62438;BME280;48481;0.000;0.000;2023-05-12T08:19:00;101656.59;;;18.13;46.80
62438;BME280;48481;0.000;0.000;2023-05-12T08:21:25;101653.97;;;18.47;45.73
62438;BME280;48481;0.000;0.000;2023-05-12T08:23:53;101653.41;;;18.58;45.30
62438;BME280;48481;0.000;0.000;2023-05-12T08:26:18;101657.03;;;18.72;44.74
62438;BME280;48481;0.000;0.000;2023-05-12T08:28:43;101648.34;;;19.11;44.40
62438;BME280;48481;0.000;0.000;2023-05-12T08:31:09;101654.50;;;19.53;42.89
62438;BME280;48481;0.000;0.000;2023-05-12T08:33:34;101655.97;;;19.75;42.26
62438;BME280;48481;0.000;0.000;2023-05-12T08:36:00;101659.69;;;19.94;41.16
62438;BME280;48481;0.000;0.000;2023-05-12T08:38:26;101655.56;;;19.91;40.35
62438;BME280;48481;0.000;0.000;2023-05-12T08:41:18;101653.69;;;20.05;40.00
62438;BME280;48481;0.000;0.000;2023-05-12T08:43:49;101657.59;;;19.63;39.66
62438;BME280;48481;0.000;0.000;2023-05-12T08:46:15;101656.84;;;19.21;40.34
62438;BME280;48481;0.000;0.000;2023-05-12T08:48:41;101654.56;;;19.18;42.07
62438;BME280;48481;0.000;0.000;2023-05-12T08:51:08;101652.63;;;19.60;41.72
62438;BME280;48481;0.000;0.000;2023-05-12T08:53:38;101654.31;;;19.81;42.05
62438;BME280;48481;0.000;0.000;2023-05-12T08:56:05;101649.34;;;19.84;41.86
62438;BME280;48481;0.000;0.000;2023-05-12T08:58:32;101651.22;;;20.17;40.53
62438;BME280;48481;0.000;0.000;2023-05-12T09:01:02;101656.78;;;19.82;41.12
62438;BME280;48481;0.000;0.000;2023-05-12T09:03:29;101651.00;;;19.72;41.90
62438;BME280;48481;0.000;0.000;2023-05-12T09:05:56;101654.72;;;19.84;41.28
62438;BME280;48481;0.000;0.000;2023-05-12T09:08:27;101654.53;;;19.86;41.02
62438;BME280;48481;0.000;0.000;2023-05-12T09:10:57;101646.66;;;19.98;40.45
62438;BME280;48481;0.000;0.000;2023-05-12T09:13:37;101654.91;;;20.36;39.86
62438;BME280;48481;0.000;0.000;2023-05-12T09:16:06;101654.72;;;20.50;38.35
62438;BME280;48481;0.000;0.000;2023-05-12T09:21:13;101641.63;;;21.25;37.45
62438;BME280;48481;0.000;0.000;2023-05-12T09:23:38;101642.28;;;21.14;35.85
62438;BME280;48481;0.000;0.000;2023-05-12T09:26:04;101643.66;;;20.78;36.92
62438;BME280;48481;0.000;0.000;2023-05-12T09:28:36;101634.69;;;20.98;35.57
62438;BME280;48481;0.000;0.000;2023-05-12T09:31:13;101638.31;;;21.23;36.69
62438;BME280;48481;0.000;0.000;2023-05-12T09:33:38;101650.28;;;21.34;33.85
62438;BME280;48481;0.000;0.000;2023-05-12T09:36:04;101632.91;;;21.30;34.10
62438;BME280;48481;0.000;0.000;2023-05-12T09:38:30;101643.56;;;21.49;33.64
62438;BME280;48481;0.000;0.000;2023-05-12T09:40:55;101631.88;;;21.62;33.29
62438;BME280;48481;0.000;0.000;2023-05-12T09:43:21;101647.31;;;21.42;33.63
62438;BME280;48481;0.000;0.000;2023-05-12T09:45:46;101638.91;;;21.63;34.15
62438;BME280;48481;0.000;0.000;2023-05-12T09:48:14;101629.28;;;21.49;32.83
62438;BME280;48481;0.000;0.000;2023-05-12T09:53:09;101648.75;;;21.51;33.58
62438;BME280;48481;0.000;0.000;2023-05-12T09:55:35;101635.28;;;21.51;33.19
62438;BME280;48481;0.000;0.000;2023-05-12T09:58:07;101636.44;;;21.62;33.96
62438;BME280;48481;0.000;0.000;2023-05-12T10:00:33;101632.28;;;21.66;34.16
62438;BME280;48481;0.000;0.000;2023-05-12T10:03:00;101634.84;;;21.79;33.38
62438;BME280;48481;0.000;0.000;2023-05-12T10:05:28;101634.25;;;22.02;33.26
62438;BME280;48481;0.000;0.000;2023-05-12T10:07:57;101624.56;;;21.94;32.85
62438;BME280;48481;0.000;0.000;2023-05-12T10:10:25;101637.81;;;21.71;33.10
62438;BME280;48481;0.000;0.000;2023-05-12T10:12:51;101637.59;;;21.41;34.53
62438;BME280;48481;0.000;0.000;2023-05-12T10:15:17;101639.22;;;21.48;31.36
62438;BME280;48481;0.000;0.000;2023-05-12T10:17:44;101629.34;;;21.67;31.35
62438;BME280;48481;0.000;0.000;2023-05-12T10:20:12;101632.31;;;21.59;31.48
62438;BME280;48481;0.000;0.000;2023-05-12T10:22:38;101629.84;;;21.82;33.00
62438;BME280;48481;0.000;0.000;2023-05-12T10:25:05;101628.59;;;22.10;32.79
62438;BME280;48481;0.000;0.000;2023-05-12T10:27:33;101623.88;;;22.30;31.88
62438;BME280;48481;0.000;0.000;2023-05-12T10:30:01;101626.25;;;22.57;31.99
62438;BME280;48481;0.000;0.000;2023-05-12T10:32:27;101622.88;;;22.61;29.95
62438;BME280;48481;0.000;0.000;2023-05-12T10:34:52;101612.84;;;22.50;29.82
62438;BME280;48481;0.000;0.000;2023-05-12T10:37:18;101624.31;;;22.64;30.91
62438;BME280;48481;0.000;0.000;2023-05-12T10:39:48;101622.53;;;21.90;33.47
62438;BME280;48481;0.000;0.000;2023-05-12T10:42:21;101623.34;;;21.65;33.43
62438;BME280;48481;0.000;0.000;2023-05-12T10:44:54;101620.28;;;21.62;34.12
62438;BME280;48481;0.000;0.000;2023-05-12T10:47:35;101619.63;;;21.35;33.55
62438;BME280;48481;0.000;0.000;2023-05-12T10:50:01;101615.66;;;21.69;31.92
62438;BME280;48481;0.000;0.000;2023-05-12T10:52:27;101619.13;;;22.01;31.27
62438;BME280;48481;0.000;0.000;2023-05-12T10:54:59;101618.78;;;22.40;32.87
62438;BME280;48481;0.000;0.000;2023-05-12T10:57:25;101616.06;;;22.22;32.92
62438;BME280;48481;0.000;0.000;2023-05-12T10:59:55;101616.25;;;21.96;29.70
62438;BME280;48481;0.000;0.000;2023-05-12T11:02:26;101621.19;;;21.49;29.95
62438;BME280;48481;0.000;0.000;2023-05-12T11:05:02;101620.75;;;21.52;30.02
62438;BME280;48481;0.000;0.000;2023-05-12T11:07:32;101626.34;;;21.12;30.75
62438;BME280;48481;0.000;0.000;2023-05-12T11:10:01;101636.06;;;21.13;31.09
62438;BME280;48481;0.000;0.000;2023-05-12T11:12:29;101628.25;;;21.50;30.76
62438;BME280;48481;0.000;0.000;2023-05-12T11:15:00;101630.91;;;21.81;29.47
62438;BME280;48481;0.000;0.000;2023-05-12T11:17:26;101626.34;;;22.32;29.55
62438;BME280;48481;0.000;0.000;2023-05-12T11:19:51;101623.63;;;22.32;28.97
62438;BME280;48481;0.000;0.000;2023-05-12T11:22:19;101630.00;;;22.56;28.54
62438;BME280;48481;0.000;0.000;2023-05-12T11:24:45;101624.09;;;22.47;28.61
62438;BME280;48481;0.000;0.000;2023-05-12T11:27:15;101620.56;;;22.03;30.25
62438;BME280;48481;0.000;0.000;2023-05-12T11:29:41;101624.09;;;22.04;31.21
62438;BME280;48481;0.000;0.000;2023-05-12T11:32:09;101630.47;;;21.84;31.01
62438;BME280;48481;0.000;0.000;2023-05-12T11:34:35;101631.06;;;21.87;31.55
62438;BME280;48481;0.000;0.000;2023-05-12T11:37:02;101626.28;;;21.89;31.19
62438;BME280;48481;0.000;0.000;2023-05-12T11:39:28;101633.09;;;21.66;31.86
62438;BME280;48481;0.000;0.000;2023-05-12T11:42:04;101633.84;;;21.42;30.50
62438;BME280;48481;0.000;0.000;2023-05-12T11:44:30;101634.72;;;21.36;31.94
62438;BME280;48481;0.000;0.000;2023-05-12T11:47:18;101628.31;;;21.68;32.65
62438;BME280;48481;0.000;0.000;2023-05-12T11:49:52;101639.34;;;21.60;30.19
62438;BME280;48481;0.000;0.000;2023-05-12T11:52:22;101643.09;;;21.14;31.50
62438;BME280;48481;0.000;0.000;2023-05-12T11:54:52;101635.81;;;21.21;31.65
62438;BME280;48481;0.000;0.000;2023-05-12T11:57:32;101643.84;;;21.35;29.43
62438;BME280;48481;0.000;0.000;2023-05-12T12:00:02;101627.88;;;21.40;31.39
62438;BME280;48481;0.000;0.000;2023-05-12T12:02:28;101634.34;;;21.64;34.09
62438;BME280;48481;0.000;0.000;2023-05-12T12:04:54;101616.59;;;22.06;30.44
62438;BME280;48481;0.000;0.000;2023-05-12T12:09:55;101643.81;;;21.73;31.69
62438;BME280;48481;0.000;0.000;2023-05-12T12:12:21;101630.59;;;22.21;31.65
62438;BME280;48481;0.000;0.000;2023-05-12T12:14:47;101631.88;;;22.37;31.29
62438;BME280;48481;0.000;0.000;2023-05-12T12:17:12;101634.78;;;22.17;30.75
62438;BME280;48481;0.000;0.000;2023-05-12T12:19:38;101627.94;;;21.90;30.61
62438;BME280;48481;0.000;0.000;2023-05-12T12:22:03;101635.28;;;21.51;30.62
62438;BME280;48481;0.000;0.000;2023-05-12T12:24:29;101623.91;;;21.74;31.04
62438;BME280;48481;0.000;0.000;2023-05-12T12:26:55;101627.38;;;21.81;30.13
62438;BME280;48481;0.000;0.000;2023-05-12T12:29:20;101626.16;;;21.52;29.88
62438;BME280;48481;0.000;0.000;2023-05-12T12:31:49;101644.56;;;21.10;30.68
62438;BME280;48481;0.000;0.000;2023-05-12T12:34:14;101632.28;;;21.28;31.29
62438;BME280;48481;0.000;0.000;2023-05-12T12:36:40;101636.00;;;20.82;31.87
62438;BME280;48481;0.000;0.000;2023-05-12T12:39:05;101649.88;;;20.79;31.93
62438;BME280;48481;0.000;0.000;2023-05-12T12:41:31;101630.66;;;20.69;32.12
62438;BME280;48481;0.000;0.000;2023-05-12T12:43:58;101632.94;;;21.16;32.12
62438;BME280;48481;0.000;0.000;2023-05-12T12:46:24;101631.28;;;21.15;31.45
62438;BME280;48481;0.000;0.000;2023-05-12T12:48:49;101633.41;;;21.07;30.96
62438;BME280;48481;0.000;0.000;2023-05-12T12:51:15;101626.31;;;21.19;31.35
62438;BME280;48481;0.000;0.000;2023-05-12T12:53:40;101632.59;;;21.51;31.67
62438;BME280;48481;0.000;0.000;2023-05-12T12:56:09;101630.56;;;21.71;30.96
62438;BME280;48481;0.000;0.000;2023-05-12T12:58:35;101620.09;;;21.57;30.83
62438;BME280;48481;0.000;0.000;2023-05-12T13:01:01;101628.63;;;21.54;30.82
62438;BME280;48481;0.000;0.000;2023-05-12T13:03:26;101629.03;;;21.12;29.93
62438;BME280;48481;0.000;0.000;2023-05-12T13:05:52;101629.59;;;21.21;29.17